createdAt,value
2023-02-08T00:01:19.739Z,74.49
2023-02-08T00:03:48.215Z,77.70
2023-02-08T00:06:16.973Z,79.54
2023-02-08T00:08:45.832Z,80.24
2023-02-08T00:11:14.476Z,80.79
2023-02-08T00:13:43.081Z,79.74
2023-02-08T00:16:14.255Z,78.82
2023-02-08T00:18:42.868Z,79.60
2023-02-08T00:21:11.689Z,78.55
2023-02-08T00:23:40.379Z,78.69
2023-02-08T00:26:09.142Z,78.13
2023-02-08T00:28:37.702Z,78.83
2023-02-08T00:31:06.833Z,77.57
2023-02-08T00:33:37.530Z,77.30
2023-02-08T00:36:07.837Z,77.12
2023-02-08T00:38:36.497Z,77.03
2023-02-08T00:41:05.244Z,75.85
2023-02-08T00:43:33.340Z,75.00
2023-02-08T00:46:01.900Z,74.71
2023-02-08T00:48:30.114Z,74.41
2023-02-08T00:51:01.019Z,73.98
2023-02-08T00:53:29.237Z,73.78
2023-02-08T00:55:57.818Z,73.70
2023-02-08T00:58:26.819Z,73.84
2023-02-08T01:00:55.243Z,73.89
2023-02-08T01:03:24.835Z,75.46
2023-02-08T01:05:52.954Z,75.20
2023-02-08T01:08:22.549Z,75.58
2023-02-08T01:10:50.585Z,75.62
2023-02-08T01:13:18.669Z,77.32
2023-02-08T01:15:46.739Z,78.54
2023-02-08T01:18:14.827Z,79.78
2023-02-08T01:20:43.034Z,78.64
2023-02-08T01:23:11.067Z,79.62
2023-02-08T01:25:41.922Z,78.93
2023-02-08T01:28:09.969Z,78.52
2023-02-08T01:30:39.308Z,77.63
2023-02-08T01:33:07.561Z,76.80
2023-02-08T01:35:35.593Z,76.76
2023-02-08T01:38:05.807Z,76.57
2023-02-08T01:40:34.136Z,76.66
2023-02-08T01:43:03.696Z,76.69
2023-02-08T01:45:33.481Z,75.83
2023-02-08T01:48:10.121Z,75.77
2023-02-08T01:50:46.332Z,75.57
2023-02-08T01:53:14.817Z,75.60
2023-02-08T01:55:47.714Z,75.33
2023-02-08T01:58:20.231Z,75.16
2023-02-08T02:00:49.157Z,74.91
2023-02-08T02:03:18.640Z,74.44
2023-02-08T02:05:53.493Z,74.13
2023-02-08T02:08:21.709Z,74.10
2023-02-08T02:10:50.837Z,74.06
2023-02-08T02:13:23.577Z,74.07
2023-02-08T02:15:52.861Z,74.10
2023-02-08T02:18:26.237Z,74.12
2023-02-08T02:21:25.590Z,74.09
2023-02-08T02:24:39.127Z,74.47
2023-02-08T02:27:34.526Z,74.64
2023-02-08T02:30:40.943Z,74.65
2023-02-08T02:33:44.731Z,75.07
2023-02-08T02:36:23.197Z,75.18
2023-02-08T02:39:03.299Z,75.26
2023-02-08T02:41:59.612Z,75.39
2023-02-08T02:44:39.202Z,75.22
2023-02-08T02:47:14.059Z,74.94
2023-02-08T02:49:51.443Z,75.33
2023-02-08T02:52:25.919Z,76.00
2023-02-08T02:54:56.383Z,75.85
2023-02-08T02:57:29.119Z,75.66
2023-02-08T02:59:59.420Z,75.68
2023-02-08T03:02:28.888Z,75.42
2023-02-08T03:04:59.013Z,75.92
2023-02-08T03:07:54.147Z,76.55
2023-02-08T03:10:53.585Z,76.97
2023-02-08T03:13:33.161Z,76.99
2023-02-08T03:16:17.123Z,77.19
2023-02-08T03:18:59.551Z,77.23
2023-02-08T03:21:39.723Z,77.28
2023-02-08T03:24:21.785Z,77.45
2023-02-08T03:26:55.366Z,77.36
2023-02-08T03:29:32.589Z,77.30
2023-02-08T03:32:04.499Z,77.24
2023-02-08T03:34:38.721Z,77.19
2023-02-08T03:37:14.120Z,77.07
2023-02-08T03:39:45.605Z,77.07
2023-02-08T03:42:18.384Z,76.93
2023-02-08T03:44:52.395Z,77.31
2023-02-08T03:47:24.359Z,77.27
2023-02-08T03:49:55.436Z,77.59
2023-02-08T03:52:26.255Z,77.76
2023-02-08T03:54:58.657Z,77.57
2023-02-08T03:57:29.778Z,77.55
2023-02-08T04:00:01.681Z,78.08
2023-02-08T04:02:45.355Z,77.83
2023-02-08T04:05:14.796Z,77.77
2023-02-08T04:07:44.332Z,77.86
2023-02-08T04:10:12.439Z,77.98
2023-02-08T04:12:40.890Z,78.03
2023-02-08T04:15:10.150Z,78.14
2023-02-08T04:17:38.154Z,78.52
2023-02-08T04:20:06.898Z,78.80
2023-02-08T04:22:35.046Z,78.76
2023-02-08T04:25:04.593Z,78.77
2023-02-08T04:27:32.741Z,78.68
2023-02-08T04:30:02.019Z,78.55
2023-02-08T04:32:30.195Z,80.04
2023-02-08T04:34:58.282Z,80.13
2023-02-08T04:37:26.425Z,80.48
2023-02-08T04:39:54.472Z,81.58
2023-02-08T04:42:24.044Z,81.22
2023-02-08T04:44:52.124Z,80.15
2023-02-08T04:47:20.168Z,79.80
2023-02-08T04:49:48.229Z,79.33
2023-02-08T04:52:16.358Z,79.04
2023-02-08T04:54:44.406Z,79.00
2023-02-08T04:57:14.684Z,78.54
2023-02-08T04:59:44.095Z,78.66
2023-02-08T05:02:12.198Z,78.55
2023-02-08T05:04:40.231Z,78.35
2023-02-08T05:07:08.453Z,78.19
2023-02-08T05:09:36.474Z,78.20
2023-02-08T05:12:04.806Z,78.60
2023-02-08T05:14:32.838Z,78.28
2023-02-08T05:17:02.355Z,78.05
2023-02-08T05:19:30.701Z,77.51
2023-02-08T05:21:58.857Z,77.91
2023-02-08T05:24:26.896Z,77.88
2023-02-08T05:26:55.056Z,77.46
2023-02-08T05:29:23.077Z,77.62
2023-02-08T05:31:51.239Z,77.97
2023-02-08T05:34:20.715Z,77.65
2023-02-08T05:36:48.874Z,77.45
2023-02-08T05:39:16.969Z,77.38
2023-02-08T05:41:45.063Z,77.59
2023-02-08T05:44:13.112Z,77.41
2023-02-08T05:46:41.335Z,77.50
2023-02-08T05:49:09.607Z,77.22
2023-02-08T05:51:39.215Z,77.26
2023-02-08T05:54:07.478Z,77.27
2023-02-08T05:56:35.884Z,77.25
2023-02-08T05:59:05.003Z,77.54
2023-02-08T06:01:33.064Z,77.27
2023-02-08T06:04:01.331Z,77.25
2023-02-08T06:06:29.698Z,77.39
2023-02-08T06:08:59.129Z,77.27
2023-02-08T06:11:28.084Z,77.28
2023-02-08T06:13:56.147Z,76.99
2023-02-08T06:16:24.320Z,76.91
2023-02-08T06:18:52.415Z,76.74
2023-02-08T06:21:20.457Z,76.90
2023-02-08T06:23:48.528Z,76.64
2023-02-08T06:26:17.994Z,76.49
2023-02-08T06:28:46.101Z,76.36
2023-02-08T06:31:14.215Z,76.33
2023-02-08T06:33:42.264Z,76.53
2023-02-08T06:36:10.652Z,76.83
2023-02-08T06:38:38.804Z,77.14
2023-02-08T06:41:07.065Z,76.96
2023-02-08T06:43:36.518Z,77.28
2023-02-08T06:46:08.579Z,77.43
2023-02-08T06:48:36.895Z,77.75
2023-02-08T06:51:05.599Z,77.92
2023-02-08T06:53:33.689Z,77.85
2023-02-08T06:56:01.718Z,77.88
2023-02-08T06:58:29.776Z,77.66
2023-02-08T07:00:59.216Z,77.54
2023-02-08T07:03:27.517Z,77.32
2023-02-08T07:06:04.440Z,77.62
2023-02-08T07:08:33.416Z,77.12
2023-02-08T07:11:01.466Z,77.07
2023-02-08T07:13:29.607Z,77.05
2023-02-08T07:15:58.986Z,77.05
2023-02-08T07:18:27.087Z,77.01
2023-02-08T07:20:55.198Z,76.86
2023-02-08T07:23:23.326Z,76.66
2023-02-08T07:25:58.777Z,76.40
2023-02-08T07:28:27.150Z,76.39
2023-02-08T07:30:55.265Z,75.90
2023-02-08T07:33:25.689Z,76.06
2023-02-08T07:35:53.998Z,76.22
2023-02-08T07:38:22.029Z,76.15
2023-02-08T07:40:50.111Z,76.15
2023-02-08T07:43:18.218Z,75.96
2023-02-08T07:45:56.041Z,75.40
2023-02-08T07:48:25.481Z,75.18
2023-02-08T07:50:53.527Z,74.57
2023-02-08T07:53:21.737Z,74.74
2023-02-08T07:55:49.771Z,74.43
2023-02-08T07:58:17.803Z,73.96
2023-02-08T08:00:45.829Z,73.34
2023-02-08T08:03:13.905Z,72.83
2023-02-08T08:05:44.021Z,73.35
2023-02-08T08:08:13.370Z,72.97
2023-02-08T08:10:42.812Z,72.74
2023-02-08T08:13:10.960Z,73.18
2023-02-08T08:15:40.321Z,73.32
2023-02-08T08:18:08.414Z,73.20
2023-02-08T08:20:36.525Z,73.83
2023-02-08T08:23:06.210Z,73.38
2023-02-08T08:25:34.302Z,73.34
2023-02-08T08:28:02.502Z,72.90
2023-02-08T08:30:31.021Z,72.72
2023-02-08T08:32:59.118Z,72.32
2023-02-08T08:35:27.194Z,73.09
2023-02-08T08:37:55.241Z,73.11
2023-02-08T08:40:25.297Z,72.77
2023-02-08T08:42:53.427Z,72.87
2023-02-08T08:45:21.495Z,72.59
2023-02-08T08:47:49.579Z,72.25
2023-02-08T08:50:17.664Z,71.07
2023-02-08T08:52:45.685Z,71.19
2023-02-08T08:55:13.744Z,71.06
2023-02-08T08:57:43.166Z,70.92
2023-02-08T09:00:12.687Z,70.95
2023-02-08T09:02:40.751Z,70.74
2023-02-08T09:05:09.292Z,70.81
2023-02-08T09:07:37.314Z,71.14
2023-02-08T09:10:05.922Z,71.01
2023-02-08T09:12:34.025Z,70.54
2023-02-08T09:15:03.638Z,70.43
2023-02-08T09:17:31.757Z,69.61
2023-02-08T09:19:59.815Z,69.62
2023-02-08T09:22:27.923Z,69.63
2023-02-08T09:24:56.009Z,69.07
2023-02-08T09:27:24.064Z,68.93
2023-02-08T09:29:52.134Z,68.25
2023-02-08T09:32:23.131Z,68.94
2023-02-08T09:34:51.295Z,68.30
2023-02-08T09:37:19.453Z,67.88
2023-02-08T09:39:47.487Z,67.75
2023-02-08T09:42:40.092Z,66.94
2023-02-08T09:45:28.048Z,66.45
2023-02-08T09:48:05.294Z,66.04
2023-02-08T09:50:36.342Z,66.05
2023-02-08T09:53:13.433Z,65.85
2023-02-08T09:55:45.268Z,66.23
2023-02-08T09:58:24.801Z,66.31
2023-02-08T10:00:54.450Z,66.40
2023-02-08T10:03:35.602Z,66.10
2023-02-08T10:06:04.997Z,66.15
2023-02-08T10:08:35.780Z,65.88
2023-02-08T10:11:17.030Z,66.31
2023-02-08T10:14:06.515Z,66.14
2023-02-08T10:16:50.605Z,66.96
2023-02-08T10:19:34.050Z,66.75
2023-02-08T10:22:14.960Z,66.69
2023-02-08T10:25:05.296Z,66.27
2023-02-08T10:27:44.054Z,65.83
2023-02-08T10:30:22.016Z,66.41
2023-02-08T10:33:00.170Z,66.43
2023-02-08T10:35:37.210Z,66.95
2023-02-08T10:38:25.261Z,66.57
2023-02-08T10:40:57.861Z,66.74
2023-02-08T10:43:36.470Z,66.68
2023-02-08T10:46:13.153Z,67.35
2023-02-08T10:49:04.955Z,66.84
2023-02-08T10:51:34.586Z,65.87
2023-02-08T10:54:02.706Z,65.49
2023-02-08T10:56:46.698Z,65.77
2023-02-08T10:59:25.086Z,66.33
2023-02-08T11:01:54.676Z,65.81
2023-02-08T11:04:22.854Z,65.44
2023-02-08T11:06:54.781Z,65.29
2023-02-08T11:09:26.747Z,64.49
2023-02-08T11:11:56.101Z,64.16
2023-02-08T11:14:40.963Z,63.62
2023-02-08T11:17:27.070Z,63.46
2023-02-08T11:19:55.312Z,63.75
2023-02-08T11:22:27.841Z,63.71
2023-02-08T11:24:59.217Z,63.47
2023-02-08T11:27:36.334Z,63.25
2023-02-08T11:30:21.388Z,62.96
2023-02-08T11:32:50.893Z,63.15
2023-02-08T11:35:23.389Z,63.75
2023-02-08T11:37:54.499Z,62.81
2023-02-08T11:40:25.822Z,62.47
2023-02-08T11:42:54.372Z,62.81
2023-02-08T11:45:25.573Z,63.61
2023-02-08T11:47:53.943Z,63.51
2023-02-08T11:50:26.421Z,62.57
2023-02-08T11:53:00.520Z,61.70
2023-02-08T11:55:31.377Z,62.13
2023-02-08T11:58:01.847Z,61.94
2023-02-08T12:00:31.953Z,61.65
2023-02-08T12:03:01.951Z,61.56
2023-02-08T12:05:41.642Z,61.40
2023-02-08T12:08:20.444Z,62.39
2023-02-08T12:11:13.236Z,61.22
2023-02-08T12:14:03.206Z,61.19
2023-02-08T12:16:49.899Z,60.11
2023-02-08T12:19:43.860Z,59.96
2023-02-08T12:22:18.012Z,59.16
2023-02-08T12:24:52.203Z,59.79
2023-02-08T12:27:33.544Z,59.75
2023-02-08T12:30:12.008Z,59.05
2023-02-08T12:32:58.682Z,59.45
2023-02-08T12:36:03.645Z,59.05
2023-02-08T12:39:19.014Z,59.08
2023-02-08T12:41:59.899Z,59.42
2023-02-08T12:44:36.762Z,59.13
2023-02-08T12:47:20.316Z,59.85
2023-02-08T12:50:00.853Z,60.15
2023-02-08T12:52:37.800Z,60.71
2023-02-08T12:55:16.180Z,60.48
2023-02-08T12:57:49.156Z,60.06
2023-02-08T13:00:22.997Z,60.00
2023-02-08T13:02:59.687Z,60.00
2023-02-08T13:05:32.797Z,59.56
2023-02-08T13:08:08.850Z,58.66
2023-02-08T13:10:40.714Z,58.70
2023-02-08T13:13:17.550Z,57.57
2023-02-08T13:15:50.513Z,56.94
2023-02-08T13:18:22.742Z,57.31
2023-02-08T13:20:54.790Z,56.49
2023-02-08T13:23:27.897Z,56.07
2023-02-08T13:25:59.919Z,56.06
2023-02-08T13:28:30.137Z,56.04
2023-02-08T13:31:03.646Z,56.10
2023-02-08T13:33:55.640Z,55.34
2023-02-08T13:36:32.282Z,55.47
2023-02-08T13:39:02.740Z,54.93
2023-02-08T13:41:33.096Z,54.63
2023-02-08T13:44:05.616Z,54.63
2023-02-08T13:46:39.681Z,55.03
2023-02-08T13:49:07.881Z,54.18
2023-02-08T13:52:03.484Z,54.09
2023-02-08T13:54:31.824Z,53.95
2023-02-08T13:57:00.129Z,54.53
2023-02-08T13:59:34.155Z,54.81
2023-02-08T14:02:30.716Z,55.41
2023-02-08T14:05:38.401Z,56.22
2023-02-08T14:08:09.073Z,55.49
2023-02-08T14:10:43.402Z,54.47
2023-02-08T14:13:28.668Z,55.44
2023-02-08T14:16:32.403Z,55.46
2023-02-08T14:19:02.913Z,56.07
2023-02-08T14:21:38.728Z,55.93
2023-02-08T14:24:10.151Z,56.94
2023-02-08T14:26:38.869Z,57.72
2023-02-08T14:29:08.049Z,57.39
2023-02-08T14:31:43.548Z,58.14
2023-02-08T14:34:27.835Z,57.36
2023-02-08T14:37:05.949Z,56.42
2023-02-08T14:39:37.449Z,56.89
2023-02-08T14:42:08.882Z,56.34
2023-02-08T14:45:05.826Z,57.76
2023-02-08T14:48:07.943Z,56.82
2023-02-08T14:50:43.545Z,55.77
2023-02-08T14:53:24.965Z,56.99
2023-02-08T14:55:57.761Z,56.50
2023-02-08T14:58:30.678Z,56.20
2023-02-08T15:01:03.148Z,56.36
2023-02-08T15:03:34.873Z,56.23
2023-02-08T15:06:35.979Z,56.77
2023-02-08T15:09:06.588Z,57.10
2023-02-08T15:11:36.508Z,57.00
2023-02-08T15:14:06.638Z,56.37
2023-02-08T15:16:37.168Z,56.91
2023-02-08T15:19:08.907Z,59.19
2023-02-08T15:21:38.980Z,58.14
2023-02-08T15:24:15.858Z,59.00
2023-02-08T15:26:48.562Z,58.04
2023-02-08T15:29:24.599Z,58.45
2023-02-08T15:31:55.698Z,59.04
2023-02-08T15:34:27.452Z,60.34
2023-02-08T15:37:00.561Z,59.30
2023-02-08T15:39:36.026Z,60.48
2023-02-08T15:42:04.141Z,60.15
2023-02-08T15:44:35.057Z,60.61
2023-02-08T15:47:06.049Z,61.31
2023-02-08T15:49:37.966Z,60.79
2023-02-08T15:52:08.624Z,62.80
2023-02-08T15:54:36.826Z,61.85
2023-02-08T15:57:10.490Z,62.96
2023-02-08T15:59:41.138Z,61.94
2023-02-08T16:02:25.340Z,62.52
2023-02-08T16:04:55.066Z,61.36
2023-02-08T16:07:30.120Z,61.79
2023-02-08T16:09:58.905Z,62.69
2023-02-08T16:12:29.077Z,62.90
2023-02-08T16:14:57.430Z,63.37
2023-02-08T16:17:37.700Z,63.81
2023-02-08T16:20:30.079Z,64.20
2023-02-08T16:23:01.766Z,63.98
2023-02-08T16:25:43.349Z,64.17
2023-02-08T16:28:26.130Z,64.14
2023-02-08T16:30:54.908Z,64.72
2023-02-08T16:33:23.425Z,65.43
2023-02-08T16:35:53.261Z,65.94
2023-02-08T16:38:24.115Z,65.99
2023-02-08T16:40:53.781Z,66.38
2023-02-08T16:43:28.711Z,66.44
2023-02-08T16:46:30.180Z,66.81
2023-02-08T16:48:59.031Z,67.41
2023-02-08T16:51:31.764Z,66.96
2023-02-08T16:54:07.067Z,67.36
2023-02-08T16:56:36.298Z,67.51
2023-02-08T16:59:04.839Z,67.63
2023-02-08T17:01:33.512Z,67.82
2023-02-08T17:04:01.776Z,68.65
2023-02-08T17:06:33.368Z,68.43
2023-02-08T17:09:03.495Z,68.70
2023-02-08T17:11:32.677Z,68.89
2023-02-08T17:14:00.965Z,69.33
2023-02-08T17:16:31.329Z,69.18
2023-02-08T17:19:00.534Z,69.46
2023-02-08T17:21:29.355Z,69.90
2023-02-08T17:23:59.568Z,69.82
2023-02-08T17:26:30.628Z,69.98
2023-02-08T17:29:00.223Z,70.12
2023-02-08T17:31:29.737Z,69.96
2023-02-08T17:34:05.196Z,69.96
2023-02-08T17:36:35.588Z,70.46
2023-02-08T17:39:06.357Z,70.41
2023-02-08T17:41:34.535Z,69.94
2023-02-08T17:44:02.668Z,69.94
2023-02-08T17:46:31.705Z,70.03
2023-02-08T17:49:01.637Z,70.33
2023-02-08T17:51:30.084Z,70.38
2023-02-08T17:53:58.354Z,70.13
2023-02-08T17:56:32.556Z,70.20
2023-02-08T17:59:03.714Z,70.06
2023-02-08T18:01:33.732Z,70.52
2023-02-08T18:04:04.727Z,70.59
2023-02-08T18:06:33.756Z,71.29
2023-02-08T18:09:01.960Z,71.63
2023-02-08T18:11:31.510Z,71.01
2023-02-08T18:14:00.637Z,71.33
2023-02-08T18:16:29.273Z,71.15
2023-02-08T18:18:59.223Z,71.20
2023-02-08T18:21:27.715Z,71.24
2023-02-08T18:23:56.472Z,71.50
2023-02-08T18:26:26.281Z,71.32
2023-02-08T18:28:55.894Z,71.31
2023-02-08T18:31:25.453Z,71.24
2023-02-08T18:33:54.227Z,71.53
2023-02-08T18:36:23.318Z,71.46
2023-02-08T18:38:53.381Z,71.44
2023-02-08T18:41:23.797Z,71.38
2023-02-08T18:43:53.412Z,71.54
2023-02-08T18:46:24.902Z,71.50
2023-02-08T18:48:54.129Z,71.19
2023-02-08T18:51:24.714Z,71.53
2023-02-08T18:53:55.260Z,71.25
2023-02-08T18:56:26.577Z,71.09
2023-02-08T18:58:56.474Z,71.04
2023-02-08T19:01:26.258Z,71.78
2023-02-08T19:03:54.510Z,71.48
2023-02-08T19:06:25.758Z,71.37
2023-02-08T19:08:58.494Z,71.26
2023-02-08T19:11:29.355Z,71.17
2023-02-08T19:13:59.295Z,71.19
2023-02-08T19:16:29.127Z,71.14
2023-02-08T19:18:57.624Z,71.05
2023-02-08T19:21:25.728Z,71.35
2023-02-08T19:23:54.627Z,71.35
2023-02-08T19:26:24.678Z,71.28
2023-02-08T19:28:54.529Z,71.45
2023-02-08T19:31:24.817Z,71.85
2023-02-08T19:33:58.573Z,72.09
2023-02-08T19:36:29.676Z,72.63
2023-02-08T19:38:58.676Z,72.28
2023-02-08T19:41:28.873Z,72.03
2023-02-08T19:43:57.010Z,72.14
2023-02-08T19:46:27.652Z,71.95
2023-02-08T19:49:00.303Z,72.00
2023-02-08T19:51:29.005Z,72.44
2023-02-08T19:53:58.191Z,72.85
2023-02-08T19:56:26.353Z,72.47
2023-02-08T19:58:54.958Z,72.41
2023-02-08T20:01:24.308Z,72.19
2023-02-08T20:03:55.006Z,72.25
2023-02-08T20:06:26.547Z,72.12
2023-02-08T20:08:55.185Z,72.06
2023-02-08T20:11:25.958Z,71.95
2023-02-08T20:13:54.839Z,72.27
2023-02-08T20:16:23.534Z,72.13
2023-02-08T20:18:52.349Z,72.21
2023-02-08T20:21:21.100Z,72.25
2023-02-08T20:23:51.625Z,72.15
2023-02-08T20:26:22.800Z,71.89
2023-02-08T20:28:53.107Z,72.11
2023-02-08T20:31:24.280Z,71.83
2023-02-08T20:33:53.034Z,71.88
2023-02-08T20:36:22.720Z,71.69
2023-02-08T20:38:53.762Z,71.66
2023-02-08T20:41:23.003Z,71.62
2023-02-08T20:43:51.499Z,72.49
2023-02-08T20:46:23.057Z,72.29
2023-02-08T20:48:52.256Z,72.10
2023-02-08T20:51:23.353Z,71.79
2023-02-08T20:53:53.866Z,71.76
2023-02-08T20:56:23.977Z,72.04
2023-02-08T20:58:53.680Z,72.78
2023-02-08T21:01:28.108Z,73.23
2023-02-08T21:03:57.785Z,73.68
2023-02-08T21:06:29.466Z,73.89
2023-02-08T21:09:00.608Z,73.31
2023-02-08T21:11:30.992Z,72.97
2023-02-08T21:14:00.026Z,72.52
2023-02-08T21:16:29.028Z,72.51
2023-02-08T21:18:57.520Z,72.66
2023-02-08T21:21:26.335Z,73.87
2023-02-08T21:23:56.762Z,73.15
2023-02-08T21:26:27.159Z,73.20
2023-02-08T21:28:56.663Z,73.70
2023-02-08T21:31:25.558Z,74.42
2023-02-08T21:33:54.401Z,74.61
2023-02-08T21:36:25.208Z,74.38
2023-02-08T21:38:53.406Z,74.20
2023-02-08T21:41:23.174Z,74.05
2023-02-08T21:43:55.061Z,74.35
2023-02-08T21:46:24.815Z,74.70
2023-02-08T21:49:10.798Z,74.54
2023-02-08T21:51:56.960Z,74.15
2023-02-08T21:54:45.853Z,74.55
2023-02-08T21:57:18.697Z,74.70
2023-02-08T21:59:49.187Z,74.98
2023-02-08T22:02:23.452Z,75.12
2023-02-08T22:05:09.843Z,75.04
2023-02-08T22:07:43.273Z,74.68
2023-02-08T22:10:12.416Z,74.80
2023-02-08T22:12:41.966Z,74.68
2023-02-08T22:15:13.005Z,74.99
2023-02-08T22:17:41.076Z,75.08
2023-02-08T22:20:11.431Z,75.72
2023-02-08T22:22:39.753Z,76.13
2023-02-08T22:25:08.093Z,76.24
2023-02-08T22:27:36.284Z,76.37
2023-02-08T22:30:04.627Z,76.56
2023-02-08T22:32:34.115Z,76.12
2023-02-08T22:35:02.313Z,76.18
2023-02-08T22:37:30.372Z,76.01
2023-02-08T22:39:58.538Z,76.25
2023-02-08T22:42:27.924Z,76.53
2023-02-08T22:44:56.600Z,76.65
2023-02-08T22:47:25.104Z,76.52
2023-02-08T22:49:57.802Z,77.03
2023-02-08T22:52:26.031Z,77.58
2023-02-08T22:54:54.735Z,77.18
2023-02-08T22:57:22.801Z,76.65
2023-02-08T22:59:50.861Z,76.64
2023-02-08T23:02:18.986Z,77.16
2023-02-08T23:04:47.020Z,77.20
2023-02-08T23:07:16.794Z,76.79
2023-02-08T23:09:44.842Z,76.91
2023-02-08T23:12:12.982Z,76.72
2023-02-08T23:14:41.125Z,76.56
2023-02-08T23:17:09.245Z,76.57
2023-02-08T23:19:37.311Z,76.73
2023-02-08T23:22:05.465Z,76.23
2023-02-08T23:24:35.180Z,75.95
2023-02-08T23:27:03.280Z,75.52
2023-02-08T23:29:31.354Z,76.20
2023-02-08T23:31:59.494Z,75.89
2023-02-08T23:34:28.425Z,75.86
2023-02-08T23:36:56.485Z,76.13
2023-02-08T23:39:24.582Z,76.53
2023-02-08T23:41:56.474Z,77.49
2023-02-08T23:44:26.590Z,76.93
2023-02-08T23:46:54.743Z,76.29
2023-02-08T23:49:22.865Z,76.32
2023-02-08T23:51:50.909Z,76.53
2023-02-08T23:54:19.127Z,76.58
2023-02-08T23:56:47.146Z,76.66
2023-02-08T23:59:16.612Z,77.06
